createdAt,value
2022-08-05T00:12:21.719Z,49
2022-08-05T00:27:39.428Z,50.5
2022-08-05T00:42:54.683Z,51.5
2022-08-05T00:58:11.166Z,54
2022-08-05T01:13:58.834Z,54
2022-08-05T01:28:43.561Z,54.5
2022-08-05T01:44:00.569Z,55.5
2022-08-05T01:59:17.501Z,56
2022-08-05T02:14:35.506Z,57
2022-08-05T02:29:58.972Z,57.5
2022-08-05T02:45:07.444Z,60
2022-08-05T03:00:25.305Z,61.5
2022-08-05T03:15:40.406Z,62
2022-08-05T03:30:56.305Z,61.5
2022-08-05T03:46:13.309Z,62.5
2022-08-05T04:01:32.226Z,62
2022-08-05T04:16:47.271Z,61.5
2022-08-05T04:32:03.223Z,61.5
2022-08-05T04:47:20.236Z,64
2022-08-05T05:02:41.245Z,65
2022-08-05T05:17:57.128Z,62
2022-08-05T05:33:16.636Z,59
2022-08-05T05:48:27.357Z,59.5
2022-08-05T06:04:01.100Z,62.5
2022-08-05T06:19:00.008Z,62
2022-08-05T06:34:15.715Z,59.5
2022-08-05T06:50:01.172Z,54.5
2022-08-05T07:04:46.866Z,51.5
2022-08-05T07:20:32.535Z,48.5
2022-08-05T07:35:55.771Z,46
2022-08-05T07:50:37.753Z,43
2022-08-05T08:05:54.719Z,42.5
2022-08-05T08:21:15.772Z,41
2022-08-05T08:36:37.625Z,42
2022-08-05T08:52:05.901Z,45
2022-08-05T09:06:59.590Z,44.5
2022-08-05T09:22:21.922Z,42.5
2022-08-05T09:38:16.487Z,38.5
2022-08-05T09:52:52.916Z,34.5
2022-08-05T10:08:36.053Z,34
2022-08-05T10:23:56.090Z,33
2022-08-05T10:38:39.431Z,31.5
2022-08-05T10:53:55.402Z,30.5
2022-08-05T11:09:16.406Z,28
2022-08-05T11:24:30.832Z,26.5
2022-08-05T11:39:48.095Z,23.5
2022-08-05T11:55:07.149Z,23.5
2022-08-05T12:10:18.261Z,24
2022-08-05T12:25:35.235Z,23.5
2022-08-05T12:40:51.218Z,23
2022-08-05T12:56:07.185Z,23
2022-08-05T13:11:47.030Z,23.5
2022-08-05T13:26:40.128Z,23
2022-08-05T13:41:57.101Z,22.5
2022-08-05T13:57:15.087Z,25
2022-08-05T14:12:32.560Z,25
2022-08-05T14:27:47.507Z,26
2022-08-05T14:43:02.987Z,26
2022-08-05T14:58:18.930Z,27
2022-08-05T15:13:46.068Z,28
2022-08-05T15:28:47.870Z,30.5
2022-08-05T15:44:03.973Z,34
2022-08-05T15:59:22.437Z,34.5
2022-08-05T16:14:36.785Z,35
2022-08-05T16:29:52.845Z,35
2022-08-05T16:46:05.994Z,36
2022-08-05T17:00:35.035Z,39.5
2022-08-05T17:15:48.572Z,49.5
2022-08-05T17:30:59.635Z,60
2022-08-05T17:46:15.644Z,61.5
2022-08-05T18:01:47.223Z,70
2022-08-05T18:16:52.207Z,79.5
2022-08-05T18:32:04.545Z,84
2022-08-05T18:47:22.744Z,84.5
2022-08-05T19:02:38.835Z,85
2022-08-05T19:18:08.141Z,83
2022-08-05T19:33:12.940Z,81.5
2022-08-05T19:48:27.355Z,82.5
2022-08-05T20:03:43.320Z,81.5
2022-08-05T20:19:00.721Z,83
2022-08-05T20:34:16.259Z,82
2022-08-05T20:49:39.680Z,81.5
2022-08-05T21:04:50.195Z,83
2022-08-05T21:20:09.954Z,85
2022-08-05T21:35:29.538Z,85
2022-08-05T21:50:39.122Z,86
2022-08-05T22:05:55.080Z,86
2022-08-05T22:06:40.944Z,86
2022-08-05T22:21:18.641Z,86.5
2022-08-05T22:36:30.036Z,86.5
2022-08-05T22:52:05.946Z,85.5
2022-08-05T23:07:01.959Z,87
2022-08-05T23:22:27.197Z,87
2022-08-05T23:37:36.904Z,86.5
2022-08-05T23:52:52.895Z,88.5
